createdAt,value
2022-10-22T00:00:34.475Z,4.17
2022-10-22T00:03:01.347Z,4.10
2022-10-22T00:05:28.238Z,3.97
2022-10-22T00:07:56.526Z,3.63
2022-10-22T00:10:23.424Z,4.73
2022-10-22T00:12:50.217Z,4.37
2022-10-22T00:15:17.039Z,4.30
2022-10-22T00:17:43.837Z,3.90
2022-10-22T00:20:11.489Z,4.13
2022-10-22T00:22:38.281Z,5.03
2022-10-22T00:25:07.097Z,4.70
2022-10-22T00:27:33.863Z,5.10
2022-10-22T00:30:00.642Z,5.30
2022-10-22T00:32:27.515Z,4.53
2022-10-22T00:34:54.297Z,4.90
2022-10-22T00:37:21.072Z,5.13
2022-10-22T00:39:47.948Z,4.70
2022-10-22T00:42:19.762Z,4.63
2022-10-22T00:45:23.390Z,5.37
2022-10-22T00:47:55.287Z,5.57
2022-10-22T00:50:26.597Z,5.90
2022-10-22T00:52:55.101Z,5.80
2022-10-22T00:55:23.951Z,5.30
2022-10-22T00:57:54.416Z,5.40
2022-10-22T01:00:21.940Z,5.47
2022-10-22T01:02:50.704Z,5.60
2022-10-22T01:05:17.956Z,5.33
2022-10-22T01:07:47.226Z,5.03
2022-10-22T01:10:25.342Z,5.77
2022-10-22T01:13:05.805Z,6.67
2022-10-22T01:15:38.486Z,4.87
2022-10-22T01:18:09.398Z,5.10
2022-10-22T01:20:58.698Z,5.80
2022-10-22T01:23:46.494Z,5.47
2022-10-22T01:29:00.291Z,5.83
2022-10-22T01:31:32.498Z,5.40
2022-10-22T01:34:00.585Z,5.77
2022-10-22T01:36:29.883Z,5.77
2022-10-22T01:38:58.784Z,5.47
2022-10-22T01:41:28.318Z,5.83
2022-10-22T01:43:56.554Z,6.03
2022-10-22T01:46:27.410Z,6.20
2022-10-22T01:49:14.995Z,5.87
2022-10-22T01:51:54.870Z,6.10
2022-10-22T01:54:31.029Z,6.70
2022-10-22T01:57:08.347Z,6.93
2022-10-22T01:59:45.656Z,6.83
2022-10-22T02:02:23.462Z,6.87
2022-10-22T02:04:57.183Z,7.00
2022-10-22T02:07:28.883Z,6.23
2022-10-22T02:09:57.295Z,6.93
2022-10-22T02:12:26.516Z,6.70
2022-10-22T02:14:57.391Z,6.27
2022-10-22T02:17:26.944Z,5.57
2022-10-22T02:19:56.012Z,5.63
2022-10-22T02:22:24.627Z,6.03
2022-10-22T02:24:51.492Z,6.63
2022-10-22T02:27:25.936Z,6.07
2022-10-22T02:30:01.610Z,6.17
2022-10-22T02:32:32.841Z,6.40
2022-10-22T02:35:01.176Z,5.47
2022-10-22T02:37:28.666Z,4.73
2022-10-22T02:39:56.314Z,6.07
2022-10-22T02:42:24.397Z,5.43
2022-10-22T02:44:51.229Z,5.33
2022-10-22T02:47:19.365Z,5.43
2022-10-22T02:49:46.184Z,4.60
2022-10-22T02:52:13.453Z,5.07
2022-10-22T02:54:40.631Z,4.07
2022-10-22T02:57:07.573Z,4.37
2022-10-22T02:59:34.538Z,4.47
2022-10-22T03:02:01.389Z,4.27
2022-10-22T03:04:29.837Z,4.10
2022-10-22T03:06:56.863Z,5.47
2022-10-22T03:09:24.912Z,4.00
2022-10-22T03:11:51.912Z,4.20
2022-10-22T03:14:18.968Z,4.40
2022-10-22T03:16:45.778Z,4.37
2022-10-22T03:19:12.590Z,4.20
2022-10-22T03:21:44.512Z,4.07
2022-10-22T03:24:16.083Z,4.50
2022-10-22T03:26:45.512Z,4.87
2022-10-22T03:29:14.261Z,4.23
2022-10-22T03:31:41.296Z,4.33
2022-10-22T03:34:08.315Z,4.30
2022-10-22T03:36:35.253Z,4.17
2022-10-22T03:39:05.422Z,3.90
2022-10-22T03:41:32.649Z,4.17
2022-10-22T03:44:01.435Z,3.60
2022-10-22T03:46:28.319Z,3.80
2022-10-22T03:48:55.152Z,3.47
2022-10-22T03:51:21.961Z,3.63
2022-10-22T03:53:48.710Z,3.93
2022-10-22T03:56:16.896Z,3.77
2022-10-22T03:58:43.767Z,4.10
2022-10-22T04:01:13.225Z,4.13
2022-10-22T04:03:40.618Z,3.57
2022-10-22T04:06:09.711Z,4.00
2022-10-22T04:08:36.968Z,3.70
2022-10-22T04:11:03.868Z,3.27
2022-10-22T04:13:32.344Z,3.77
2022-10-22T04:16:07.744Z,3.50
2022-10-22T04:18:36.121Z,3.67
2022-10-22T04:21:03.293Z,2.57
2022-10-22T04:23:30.048Z,3.07
2022-10-22T04:25:59.193Z,2.03
2022-10-22T04:28:25.997Z,2.00
2022-10-22T04:30:54.279Z,1.87
2022-10-22T04:33:21.754Z,1.63
2022-10-22T04:35:48.575Z,1.80
2022-10-22T04:38:15.989Z,1.70
2022-10-22T04:40:42.835Z,1.80
2022-10-22T04:43:09.842Z,1.83
2022-10-22T04:45:36.856Z,2.63
2022-10-22T04:48:05.838Z,1.70
2022-10-22T04:50:32.731Z,1.83
2022-10-22T04:52:59.597Z,2.40
2022-10-22T04:55:26.575Z,2.20
2022-10-22T04:57:53.430Z,1.70
2022-10-22T05:00:20.351Z,1.70
2022-10-22T05:02:49.807Z,1.57
2022-10-22T05:05:17.937Z,2.03
2022-10-22T05:07:44.764Z,1.53
2022-10-22T05:10:11.595Z,1.70
2022-10-22T05:12:38.353Z,1.77
2022-10-22T05:15:05.976Z,4.00
2022-10-22T05:17:35.983Z,6.47
2022-10-22T05:20:02.881Z,2.10
2022-10-22T05:22:31.046Z,2.13
2022-10-22T05:24:57.841Z,1.53
2022-10-22T05:27:25.504Z,1.30
2022-10-22T05:29:52.551Z,1.50
2022-10-22T05:32:19.351Z,1.40
2022-10-22T05:34:46.176Z,1.10
2022-10-22T05:37:12.997Z,1.50
2022-10-22T05:39:41.575Z,1.20
2022-10-22T05:42:08.340Z,1.77
2022-10-22T05:44:35.403Z,2.00
2022-10-22T05:47:02.232Z,1.90
2022-10-22T05:49:29.043Z,1.80
2022-10-22T05:51:55.868Z,1.40
2022-10-22T05:54:22.824Z,1.67
2022-10-22T05:56:50.960Z,1.53
2022-10-22T05:59:17.997Z,1.53
2022-10-22T06:01:44.897Z,1.53
2022-10-22T06:04:13.084Z,1.30
2022-10-22T06:06:42.973Z,2.00
2022-10-22T06:09:15.807Z,1.70
2022-10-22T06:11:42.759Z,1.50
2022-10-22T06:14:11.518Z,1.33
2022-10-22T06:16:38.654Z,1.60
2022-10-22T06:19:05.498Z,1.70
2022-10-22T06:21:32.670Z,1.70
2022-10-22T06:24:00.962Z,1.40
2022-10-22T06:26:28.552Z,1.47
2022-10-22T06:28:56.043Z,1.60
2022-10-22T06:31:24.685Z,1.70
2022-10-22T06:33:56.001Z,1.87
2022-10-22T06:36:23.964Z,1.90
2022-10-22T06:38:52.439Z,1.77
2022-10-22T06:41:19.308Z,2.07
2022-10-22T06:43:49.455Z,2.00
2022-10-22T06:46:19.961Z,2.00
2022-10-22T06:48:51.965Z,1.60
2022-10-22T06:51:18.942Z,1.90
2022-10-22T06:53:45.782Z,2.23
2022-10-22T06:56:15.345Z,2.03
2022-10-22T06:58:42.357Z,2.00
2022-10-22T07:01:12.335Z,1.60
2022-10-22T07:03:40.340Z,1.67
2022-10-22T07:06:10.634Z,1.30
2022-10-22T07:08:37.655Z,1.10
2022-10-22T07:11:09.450Z,1.27
2022-10-22T07:13:36.795Z,1.30
2022-10-22T07:16:04.185Z,1.50
2022-10-22T07:18:31.902Z,1.40
2022-10-22T07:20:59.638Z,1.20
2022-10-22T07:23:28.853Z,1.10
2022-10-22T07:28:24.059Z,1.00
2022-10-22T07:30:50.939Z,0.90
2022-10-22T07:33:17.779Z,0.70
2022-10-22T07:35:44.729Z,1.27
2022-10-22T07:38:11.610Z,0.90
2022-10-22T07:40:39.786Z,0.70
2022-10-22T07:43:06.839Z,0.90
2022-10-22T07:45:33.883Z,0.83
2022-10-22T07:48:01.763Z,1.07
2022-10-22T07:50:28.689Z,0.90
2022-10-22T07:52:57.509Z,0.83
2022-10-22T07:55:25.566Z,1.60
2022-10-22T07:57:53.798Z,0.97
2022-10-22T08:00:23.192Z,1.33
2022-10-22T08:02:52.173Z,0.87
2022-10-22T08:05:19.044Z,0.70
2022-10-22T08:07:45.909Z,0.80
2022-10-22T08:10:13.336Z,1.07
2022-10-22T08:12:41.007Z,0.93
2022-10-22T08:15:10.520Z,0.90
2022-10-22T08:17:37.401Z,1.27
2022-10-22T08:20:05.100Z,4.80
2022-10-22T08:22:31.928Z,0.90
2022-10-22T08:25:00.358Z,0.93
2022-10-22T08:27:27.227Z,0.80
2022-10-22T08:29:54.143Z,0.93
2022-10-22T08:32:22.378Z,0.80
2022-10-22T08:34:49.276Z,0.97
2022-10-22T08:37:17.096Z,0.87
2022-10-22T08:39:44.277Z,0.87
2022-10-22T08:42:43.898Z,0.83
2022-10-22T08:45:15.302Z,0.90
2022-10-22T08:48:02.216Z,0.90
2022-10-22T08:50:33.938Z,0.63
2022-10-22T08:53:05.622Z,0.80
2022-10-22T08:55:37.217Z,0.83
2022-10-22T08:58:18.832Z,0.77
2022-10-22T09:00:50.029Z,0.80
2022-10-22T09:03:36.565Z,0.80
2022-10-22T09:06:11.161Z,0.70
2022-10-22T09:08:39.411Z,0.63
2022-10-22T09:11:15.381Z,0.70
2022-10-22T09:13:44.458Z,1.03
2022-10-22T09:16:17.400Z,0.40
2022-10-22T09:18:58.170Z,0.77
2022-10-22T09:21:31.838Z,0.60
2022-10-22T09:24:09.224Z,0.77
2022-10-22T09:26:38.791Z,0.70
2022-10-22T09:29:06.195Z,0.50
2022-10-22T09:31:34.099Z,0.50
2022-10-22T09:34:07.314Z,0.50
2022-10-22T09:36:35.298Z,0.57
2022-10-22T09:39:02.234Z,0.40
2022-10-22T09:41:30.094Z,0.60
2022-10-22T09:43:57.820Z,0.57
2022-10-22T09:46:29.529Z,0.67
2022-10-22T09:49:06.591Z,0.70
2022-10-22T09:51:41.797Z,0.73
2022-10-22T09:54:16.441Z,0.73
2022-10-22T09:56:48.402Z,0.70
2022-10-22T09:59:16.880Z,0.70
2022-10-22T10:01:44.570Z,0.80
2022-10-22T10:04:14.945Z,0.67
2022-10-22T10:06:44.764Z,0.40
2022-10-22T10:09:16.673Z,0.60
2022-10-22T10:11:48.831Z,0.70
2022-10-22T10:14:25.178Z,0.70
2022-10-22T10:16:58.356Z,0.70
2022-10-22T10:19:43.149Z,0.80
2022-10-22T10:22:18.651Z,0.50
2022-10-22T10:25:12.966Z,0.50
2022-10-22T10:27:43.957Z,0.70
2022-10-22T10:30:15.910Z,0.70
2022-10-22T10:33:02.682Z,0.53
2022-10-22T10:35:38.075Z,0.70
2022-10-22T10:38:22.615Z,1.33
2022-10-22T10:40:56.397Z,0.50
2022-10-22T10:43:30.274Z,1.37
2022-10-22T10:46:08.963Z,0.70
2022-10-22T10:48:46.690Z,0.80
2022-10-22T10:51:31.705Z,0.80
2022-10-22T10:54:11.946Z,0.60
2022-10-22T10:56:41.775Z,0.50
2022-10-22T10:59:17.647Z,1.03
2022-10-22T11:01:56.158Z,0.30
2022-10-22T11:04:57.872Z,0.47
2022-10-22T11:07:34.634Z,0.57
2022-10-22T11:10:08.730Z,0.40
2022-10-22T11:12:39.966Z,0.63
2022-10-22T11:15:13.483Z,0.60
2022-10-22T11:17:42.969Z,0.63
2022-10-22T11:20:17.067Z,0.77
2022-10-22T11:23:16.800Z,0.40
2022-10-22T11:25:44.511Z,0.57
2022-10-22T11:30:45.843Z,0.60
2022-10-22T11:33:18.263Z,0.73
2022-10-22T11:35:47.313Z,0.40
2022-10-22T11:38:22.300Z,0.80
2022-10-22T11:40:51.958Z,1.53
2022-10-22T11:43:30.891Z,0.60
2022-10-22T11:46:03.169Z,0.50
2022-10-22T11:48:38.017Z,0.50
2022-10-22T11:51:25.699Z,0.80
2022-10-22T11:53:58.747Z,0.83
2022-10-22T11:56:27.822Z,0.60
2022-10-22T11:58:55.466Z,0.60
2022-10-22T12:01:29.002Z,0.57
2022-10-22T12:04:22.152Z,0.73
2022-10-22T12:07:00.401Z,1.30
2022-10-22T12:09:32.264Z,0.93
2022-10-22T12:12:10.588Z,0.80
2022-10-22T12:14:50.608Z,0.60
2022-10-22T12:17:19.405Z,0.70
2022-10-22T12:19:49.535Z,1.00
2022-10-22T12:22:19.597Z,0.90
2022-10-22T12:24:49.614Z,0.77
2022-10-22T12:27:22.352Z,0.60
2022-10-22T12:29:55.029Z,0.70
2022-10-22T12:32:21.857Z,0.53
2022-10-22T12:37:22.207Z,0.70
2022-10-22T12:39:51.475Z,0.63
2022-10-22T12:42:18.855Z,0.80
2022-10-22T12:44:45.881Z,0.70
2022-10-22T12:47:16.690Z,1.00
2022-10-22T12:49:48.036Z,0.97
2022-10-22T12:52:18.184Z,0.67
2022-10-22T12:54:54.870Z,0.87
2022-10-22T12:57:22.295Z,0.80
2022-10-22T12:59:51.938Z,0.70
2022-10-22T13:02:21.767Z,0.70
2022-10-22T13:05:18.560Z,0.80
2022-10-22T13:07:49.434Z,0.70
2022-10-22T13:10:22.941Z,1.03
2022-10-22T13:12:51.375Z,0.53
2022-10-22T13:15:33.440Z,0.73
2022-10-22T13:18:05.683Z,0.90
2022-10-22T13:20:33.415Z,1.57
2022-10-22T13:23:02.591Z,1.07
2022-10-22T13:25:32.546Z,0.67
2022-10-22T13:28:01.763Z,0.50
2022-10-22T13:30:31.679Z,0.57
2022-10-22T13:33:00.590Z,0.80
2022-10-22T13:35:30.410Z,0.90
2022-10-22T13:37:57.466Z,0.80
2022-10-22T13:40:24.332Z,0.93
2022-10-22T13:42:52.535Z,0.60
2022-10-22T13:45:19.683Z,0.60
2022-10-22T13:47:51.032Z,0.90
2022-10-22T13:50:20.334Z,0.90
2022-10-22T13:52:50.391Z,0.80
2022-10-22T13:55:20.198Z,1.10
2022-10-22T13:57:47.286Z,1.10
2022-10-22T14:00:18.086Z,0.90
2022-10-22T14:02:47.303Z,0.90
2022-10-22T14:05:16.294Z,0.73
2022-10-22T14:07:44.411Z,1.23
2022-10-22T14:10:17.242Z,1.00
2022-10-22T14:12:44.077Z,1.00
2022-10-22T14:15:13.412Z,0.97
2022-10-22T14:17:43.947Z,1.10
2022-10-22T14:20:16.610Z,0.90
2022-10-22T14:22:43.487Z,0.70
2022-10-22T14:25:14.699Z,0.90
2022-10-22T14:27:42.155Z,1.20
2022-10-22T14:30:13.249Z,1.00
2022-10-22T14:32:41.751Z,1.20
2022-10-22T14:35:11.894Z,0.93
2022-10-22T14:37:38.709Z,0.67
2022-10-22T14:40:07.120Z,0.70
2022-10-22T14:42:38.860Z,0.83
2022-10-22T14:45:07.224Z,0.83
2022-10-22T14:47:34.034Z,1.07
2022-10-22T14:50:02.218Z,0.97
2022-10-22T14:52:28.995Z,1.20
2022-10-22T14:54:55.773Z,1.00
2022-10-22T14:57:22.526Z,0.80
2022-10-22T14:59:49.346Z,1.10
2022-10-22T15:02:16.388Z,1.20
2022-10-22T15:04:43.141Z,1.17
2022-10-22T15:09:56.857Z,1.23
2022-10-22T15:12:23.658Z,1.50
2022-10-22T15:14:50.739Z,1.00
2022-10-22T15:17:18.174Z,1.13
2022-10-22T15:19:45.039Z,1.23
2022-10-22T15:22:14.124Z,1.13
2022-10-22T15:24:43.707Z,1.10
2022-10-22T15:27:13.628Z,1.20
2022-10-22T15:29:41.256Z,1.47
2022-10-22T15:32:10.392Z,1.20
2022-10-22T15:34:38.712Z,1.33
2022-10-22T15:37:08.287Z,1.90
2022-10-22T15:39:39.091Z,1.50
2022-10-22T15:42:05.980Z,1.10
2022-10-22T15:44:33.096Z,1.40
2022-10-22T15:47:00.577Z,1.23
2022-10-22T15:49:28.222Z,1.67
2022-10-22T15:51:55.711Z,1.37
2022-10-22T15:54:24.931Z,1.40
2022-10-22T15:56:53.086Z,1.23
2022-10-22T15:59:20.019Z,1.83
2022-10-22T16:01:47.398Z,1.80
2022-10-22T16:04:14.370Z,1.23
2022-10-22T16:06:43.845Z,1.50
2022-10-22T16:09:12.442Z,1.80
2022-10-22T16:11:40.676Z,1.50
2022-10-22T16:14:11.353Z,1.40
2022-10-22T16:16:42.563Z,1.43
2022-10-22T16:19:10.121Z,1.33
2022-10-22T16:21:36.975Z,1.83
2022-10-22T16:24:06.279Z,2.27
2022-10-22T16:26:33.659Z,2.37
2022-10-22T16:29:00.530Z,2.93
2022-10-22T16:31:28.920Z,2.23
2022-10-22T16:33:55.856Z,2.33
2022-10-22T16:36:22.720Z,2.03
2022-10-22T16:38:50.079Z,3.67
2022-10-22T16:41:19.302Z,4.93
2022-10-22T16:43:51.002Z,2.70
2022-10-22T16:46:20.185Z,3.53
2022-10-22T16:48:50.111Z,3.03
2022-10-22T16:51:21.315Z,3.20
2022-10-22T16:53:50.913Z,2.70
2022-10-22T16:56:18.122Z,1.50
2022-10-22T16:58:46.537Z,1.60
2022-10-22T17:01:17.655Z,2.13
2022-10-22T17:03:45.522Z,1.60
2022-10-22T17:06:14.006Z,1.37
2022-10-22T17:08:41.747Z,1.63
2022-10-22T17:11:09.563Z,1.80
2022-10-22T17:13:37.340Z,2.33
2022-10-22T17:16:05.421Z,1.97
2022-10-22T17:18:32.861Z,1.77
2022-10-22T17:20:59.832Z,1.97
2022-10-22T17:23:30.644Z,2.20
2022-10-22T17:25:59.621Z,1.80
2022-10-22T17:28:26.937Z,2.57
2022-10-22T17:31:03.294Z,2.13
2022-10-22T17:33:31.398Z,2.97
2022-10-22T17:35:58.767Z,2.90
2022-10-22T17:38:27.357Z,2.37
2022-10-22T17:40:54.473Z,2.20
2022-10-22T17:43:21.396Z,2.53
2022-10-22T17:45:48.306Z,3.00
2022-10-22T17:48:15.121Z,2.03
2022-10-22T17:50:44.003Z,2.00
2022-10-22T17:53:12.688Z,2.17
2022-10-22T17:55:41.489Z,4.33
2022-10-22T17:58:08.339Z,4.00
2022-10-22T18:00:36.041Z,4.40
2022-10-22T18:03:03.037Z,3.97
2022-10-22T18:05:30.066Z,3.07
2022-10-22T18:07:57.424Z,2.70
2022-10-22T18:10:24.824Z,2.97
2022-10-22T18:12:52.957Z,2.37
2022-10-22T18:15:19.846Z,3.00
2022-10-22T18:17:47.920Z,3.53
2022-10-22T18:20:14.843Z,3.00
2022-10-22T18:22:42.327Z,2.30
2022-10-22T18:25:09.860Z,2.70
2022-10-22T18:27:37.101Z,3.77
2022-10-22T18:30:06.614Z,3.67
2022-10-22T18:32:34.054Z,3.30
2022-10-22T18:35:00.903Z,6.20
2022-10-22T18:37:27.920Z,3.20
2022-10-22T18:39:54.907Z,2.90
2022-10-22T18:42:21.733Z,2.73
2022-10-22T18:44:49.779Z,3.30
2022-10-22T18:47:18.025Z,2.80
2022-10-22T18:49:44.914Z,3.87
2022-10-22T18:52:12.083Z,4.10
2022-10-22T18:54:38.975Z,4.30
2022-10-22T18:57:05.952Z,3.90
2022-10-22T18:59:32.851Z,3.40
2022-10-22T19:01:59.909Z,3.67
2022-10-22T19:04:33.098Z,3.77
2022-10-22T19:07:00.148Z,3.40
2022-10-22T19:09:27.122Z,2.87
2022-10-22T19:11:53.946Z,3.17
2022-10-22T19:14:22.150Z,3.07
2022-10-22T19:16:49.620Z,3.23
2022-10-22T19:19:18.430Z,3.37
2022-10-22T19:21:47.644Z,5.63
2022-10-22T19:24:15.776Z,8.60
2022-10-22T19:26:43.353Z,8.80
2022-10-22T19:29:10.949Z,5.37
2022-10-22T19:31:38.146Z,4.90
2022-10-22T19:34:05.001Z,4.10
2022-10-22T19:36:32.650Z,3.30
2022-10-22T19:39:01.829Z,2.73
2022-10-22T19:41:30.433Z,2.37
2022-10-22T19:43:58.245Z,2.70
2022-10-22T19:46:26.275Z,2.77
2022-10-22T19:48:56.134Z,2.03
2022-10-22T19:51:24.976Z,2.20
2022-10-22T19:53:58.106Z,2.27
2022-10-22T19:56:26.639Z,2.17
2022-10-22T19:58:53.706Z,1.97
2022-10-22T20:01:21.047Z,1.90
2022-10-22T20:03:48.134Z,1.73
2022-10-22T20:06:16.988Z,2.50
2022-10-22T20:08:44.092Z,2.20
2022-10-22T20:11:15.783Z,2.37
2022-10-22T20:13:48.060Z,2.70
2022-10-22T20:16:20.811Z,2.13
2022-10-22T20:18:47.601Z,2.13
2022-10-22T20:21:16.722Z,1.77
2022-10-22T20:23:43.743Z,2.23
2022-10-22T20:26:10.724Z,2.07
2022-10-22T20:28:38.426Z,2.40
2022-10-22T20:31:10.819Z,2.10
2022-10-22T20:33:37.733Z,2.17
2022-10-22T20:36:06.564Z,2.00
2022-10-22T20:38:33.921Z,1.67
2022-10-22T20:41:02.074Z,2.10
2022-10-22T20:43:29.424Z,1.87
2022-10-22T20:45:56.772Z,1.70
2022-10-22T20:48:29.280Z,4.13
2022-10-22T20:50:56.632Z,1.83
2022-10-22T20:53:23.681Z,2.60
2022-10-22T20:55:54.190Z,1.67
2022-10-22T20:58:24.540Z,1.63
2022-10-22T21:00:54.950Z,2.35
2022-10-22T21:03:22.480Z,2.87
2022-10-22T21:05:50.694Z,3.70
2022-10-22T21:08:17.702Z,2.80
2022-10-22T21:10:46.319Z,3.07
2022-10-22T21:13:13.241Z,3.53
2022-10-22T21:15:40.086Z,3.50
2022-10-22T21:18:07.161Z,4.40
2022-10-22T21:20:33.954Z,4.10
2022-10-22T21:23:02.177Z,3.73
2022-10-22T21:25:28.989Z,3.30
2022-10-22T21:27:55.855Z,2.87
2022-10-22T21:30:22.706Z,3.20
2022-10-22T21:32:49.588Z,3.27
2022-10-22T21:35:16.911Z,2.60
2022-10-22T21:37:44.070Z,2.37
2022-10-22T21:40:13.116Z,2.13
2022-10-22T21:42:39.967Z,2.10
2022-10-22T21:45:12.134Z,1.97
2022-10-22T21:47:41.243Z,2.73
2022-10-22T21:50:08.985Z,1.90
2022-10-22T21:52:35.826Z,2.13
2022-10-22T21:55:02.682Z,1.67
2022-10-22T21:57:31.089Z,2.67
2022-10-22T21:59:57.899Z,1.90
2022-10-22T22:02:27.117Z,2.20
2022-10-22T22:04:54.916Z,2.23
2022-10-22T22:07:22.180Z,2.40
2022-10-22T22:09:49.953Z,2.40
2022-10-22T22:12:17.030Z,2.07
2022-10-22T22:14:45.186Z,1.70
2022-10-22T22:17:12.093Z,1.43
2022-10-22T22:19:39.013Z,1.50
2022-10-22T22:22:05.858Z,1.57
2022-10-22T22:24:32.824Z,1.70
2022-10-22T22:26:59.675Z,1.50
2022-10-22T22:29:26.426Z,1.47
2022-10-22T22:31:54.919Z,2.00
2022-10-22T22:34:21.755Z,2.00
2022-10-22T22:36:51.451Z,2.10
2022-10-22T22:39:20.278Z,1.67
2022-10-22T22:41:47.602Z,1.80
2022-10-22T22:44:14.610Z,1.83
2022-10-22T22:46:41.420Z,1.97
2022-10-22T22:49:10.009Z,2.50
2022-10-22T22:51:36.920Z,2.37
2022-10-22T22:54:03.842Z,2.30
2022-10-22T22:56:32.742Z,2.30
2022-10-22T22:58:59.672Z,1.93
2022-10-22T23:01:29.174Z,2.03
2022-10-22T23:03:58.158Z,2.03
2022-10-22T23:06:28.002Z,2.43
2022-10-22T23:08:55.287Z,2.30
2022-10-22T23:11:23.685Z,2.53
2022-10-22T23:13:52.984Z,2.30
2022-10-22T23:16:21.439Z,2.20
2022-10-22T23:18:49.305Z,2.33
2022-10-22T23:21:18.222Z,1.80
2022-10-22T23:23:48.563Z,1.90
2022-10-22T23:26:18.919Z,2.00
2022-10-22T23:28:45.810Z,2.80
2022-10-22T23:31:14.808Z,2.70
2022-10-22T23:33:42.262Z,2.40
2022-10-22T23:36:09.613Z,1.93
2022-10-22T23:38:38.000Z,1.77
2022-10-22T23:41:06.972Z,1.80
2022-10-22T23:43:36.091Z,1.97
2022-10-22T23:46:03.430Z,2.10
2022-10-22T23:48:31.762Z,1.93
2022-10-22T23:51:03.355Z,1.57
2022-10-22T23:53:30.114Z,1.83
2022-10-22T23:55:56.928Z,2.07
2022-10-22T23:58:25.132Z,2.40
